sensor_id;sensor_type;location;lat;lon;timestamp;P1;durP1;ratioP1;P2;durP2;ratioP2
5841;SDS011;2947;52.276;9.946;2023-06-19T00:02:16;7.15;;;4.00;;
5841;SDS011;2947;52.276;9.946;2023-06-19T00:04:42;7.38;;;5.38;;
5841;SDS011;2947;52.276;9.946;2023-06-19T00:07:08;7.63;;;4.88;;
5841;SDS011;2947;52.276;9.946;2023-06-19T00:09:33;9.35;;;5.57;;
5841;SDS011;2947;52.276;9.946;2023-06-19T00:11:59;7.10;;;4.60;;
5841;SDS011;2947;52.276;9.946;2023-06-19T00:14:26;10.38;;;5.32;;
5841;SDS011;2947;52.276;9.946;2023-06-19T00:16:52;7.45;;;4.43;;
5841;SDS011;2947;52.276;9.946;2023-06-19T00:19:17;8.10;;;4.43;;
5841;SDS011;2947;52.276;9.946;2023-06-19T00:21:43;6.55;;;5.07;;
5841;SDS011;2947;52.276;9.946;2023-06-19T00:24:09;7.95;;;4.55;;
5841;SDS011;2947;52.276;9.946;2023-06-19T00:26:36;8.15;;;5.00;;
5841;SDS011;2947;52.276;9.946;2023-06-19T00:29:01;7.05;;;4.25;;
5841;SDS011;2947;52.276;9.946;2023-06-19T00:31:27;5.95;;;4.15;;
5841;SDS011;2947;52.276;9.946;2023-06-19T00:33:53;6.28;;;4.30;;
5841;SDS011;2947;52.276;9.946;2023-06-19T00:36:19;6.85;;;4.68;;
5841;SDS011;2947;52.276;9.946;2023-06-19T00:38:46;7.57;;;5.30;;
5841;SDS011;2947;52.276;9.946;2023-06-19T00:41:15;7.68;;;4.78;;
5841;SDS011;2947;52.276;9.946;2023-06-19T00:43:42;6.50;;;4.65;;
5841;SDS011;2947;52.276;9.946;2023-06-19T00:46:07;6.72;;;4.32;;
5841;SDS011;2947;52.276;9.946;2023-06-19T00:48:33;7.72;;;5.18;;
5841;SDS011;2947;52.276;9.946;2023-06-19T00:50:59;7.25;;;5.07;;
5841;SDS011;2947;52.276;9.946;2023-06-19T00:53:26;7.13;;;4.43;;
5841;SDS011;2947;52.276;9.946;2023-06-19T00:55:53;7.35;;;4.70;;
5841;SDS011;2947;52.276;9.946;2023-06-19T00:58:20;6.85;;;4.60;;
5841;SDS011;2947;52.276;9.946;2023-06-19T01:00:47;9.70;;;4.57;;
5841;SDS011;2947;52.276;9.946;2023-06-19T01:03:13;4.65;;;3.25;;
5841;SDS011;2947;52.276;9.946;2023-06-19T01:05:39;7.50;;;4.75;;
5841;SDS011;2947;52.276;9.946;2023-06-19T01:08:10;6.30;;;4.53;;
5841;SDS011;2947;52.276;9.946;2023-06-19T01:11:10;6.88;;;4.68;;
5841;SDS011;2947;52.276;9.946;2023-06-19T01:13:44;6.88;;;4.15;;
5841;SDS011;2947;52.276;9.946;2023-06-19T01:16:15;7.00;;;4.00;;
5841;SDS011;2947;52.276;9.946;2023-06-19T01:18:43;5.93;;;4.20;;
5841;SDS011;2947;52.276;9.946;2023-06-19T01:21:13;7.93;;;4.47;;
5841;SDS011;2947;52.276;9.946;2023-06-19T01:23:41;8.27;;;4.78;;
5841;SDS011;2947;52.276;9.946;2023-06-19T01:26:08;6.03;;;4.50;;
5841;SDS011;2947;52.276;9.946;2023-06-19T01:28:35;7.30;;;5.03;;
5841;SDS011;2947;52.276;9.946;2023-06-19T01:31:04;7.88;;;5.07;;
5841;SDS011;2947;52.276;9.946;2023-06-19T01:33:35;7.07;;;4.40;;
5841;SDS011;2947;52.276;9.946;2023-06-19T01:36:03;7.75;;;4.22;;
5841;SDS011;2947;52.276;9.946;2023-06-19T01:38:30;6.80;;;4.88;;
5841;SDS011;2947;52.276;9.946;2023-06-19T01:40:56;8.77;;;4.95;;
5841;SDS011;2947;52.276;9.946;2023-06-19T01:43:24;6.05;;;4.10;;
5841;SDS011;2947;52.276;9.946;2023-06-19T01:45:52;6.72;;;3.85;;
5841;SDS011;2947;52.276;9.946;2023-06-19T01:48:18;8.07;;;5.05;;
5841;SDS011;2947;52.276;9.946;2023-06-19T01:50:46;6.35;;;4.25;;
5841;SDS011;2947;52.276;9.946;2023-06-19T01:53:13;6.20;;;4.43;;
5841;SDS011;2947;52.276;9.946;2023-06-19T01:55:40;9.70;;;5.28;;
5841;SDS011;2947;52.276;9.946;2023-06-19T01:58:06;7.35;;;4.88;;
5841;SDS011;2947;52.276;9.946;2023-06-19T02:00:32;7.60;;;4.90;;
5841;SDS011;2947;52.276;9.946;2023-06-19T02:03:00;8.32;;;5.03;;
5841;SDS011;2947;52.276;9.946;2023-06-19T02:05:26;8.02;;;5.30;;
5841;SDS011;2947;52.276;9.946;2023-06-19T02:07:52;6.65;;;4.32;;
5841;SDS011;2947;52.276;9.946;2023-06-19T02:10:18;7.88;;;6.25;;
5841;SDS011;2947;52.276;9.946;2023-06-19T02:12:43;9.73;;;4.97;;
5841;SDS011;2947;52.276;9.946;2023-06-19T02:15:09;6.07;;;4.22;;
5841;SDS011;2947;52.276;9.946;2023-06-19T02:17:35;7.55;;;4.38;;
5841;SDS011;2947;52.276;9.946;2023-06-19T02:20:01;7.57;;;4.78;;
5841;SDS011;2947;52.276;9.946;2023-06-19T02:22:27;7.65;;;5.25;;
5841;SDS011;2947;52.276;9.946;2023-06-19T02:24:53;6.15;;;4.20;;
5841;SDS011;2947;52.276;9.946;2023-06-19T02:27:18;8.68;;;4.65;;
5841;SDS011;2947;52.276;9.946;2023-06-19T02:29:44;6.45;;;4.25;;
5841;SDS011;2947;52.276;9.946;2023-06-19T02:32:10;9.75;;;4.60;;
5841;SDS011;2947;52.276;9.946;2023-06-19T02:34:36;6.35;;;4.35;;
5841;SDS011;2947;52.276;9.946;2023-06-19T02:37:01;6.47;;;4.60;;
5841;SDS011;2947;52.276;9.946;2023-06-19T02:39:27;7.55;;;5.22;;
5841;SDS011;2947;52.276;9.946;2023-06-19T02:41:54;8.85;;;4.78;;
5841;SDS011;2947;52.276;9.946;2023-06-19T02:44:20;8.50;;;5.43;;
5841;SDS011;2947;52.276;9.946;2023-06-19T02:46:45;7.13;;;4.50;;
5841;SDS011;2947;52.276;9.946;2023-06-19T02:49:11;8.05;;;5.32;;
5841;SDS011;2947;52.276;9.946;2023-06-19T02:51:37;7.45;;;4.38;;
5841;SDS011;2947;52.276;9.946;2023-06-19T02:54:02;7.18;;;4.72;;
5841;SDS011;2947;52.276;9.946;2023-06-19T02:56:28;8.02;;;4.60;;
5841;SDS011;2947;52.276;9.946;2023-06-19T02:58:54;6.47;;;4.25;;
5841;SDS011;2947;52.276;9.946;2023-06-19T03:01:19;6.38;;;4.50;;
5841;SDS011;2947;52.276;9.946;2023-06-19T03:03:45;8.70;;;4.93;;
5841;SDS011;2947;52.276;9.946;2023-06-19T03:06:11;6.25;;;4.53;;
5841;SDS011;2947;52.276;9.946;2023-06-19T03:08:38;6.57;;;4.20;;
5841;SDS011;2947;52.276;9.946;2023-06-19T03:11:04;8.95;;;4.97;;
5841;SDS011;2947;52.276;9.946;2023-06-19T03:13:43;7.35;;;4.82;;
5841;SDS011;2947;52.276;9.946;2023-06-19T03:16:12;5.50;;;3.97;;
5841;SDS011;2947;52.276;9.946;2023-06-19T03:18:39;6.18;;;4.60;;
5841;SDS011;2947;52.276;9.946;2023-06-19T03:21:06;6.50;;;4.53;;
5841;SDS011;2947;52.276;9.946;2023-06-19T03:23:32;10.80;;;4.40;;
5841;SDS011;2947;52.276;9.946;2023-06-19T03:25:57;7.15;;;4.82;;
5841;SDS011;2947;52.276;9.946;2023-06-19T03:28:23;8.63;;;5.45;;
5841;SDS011;2947;52.276;9.946;2023-06-19T03:30:49;6.28;;;4.22;;
5841;SDS011;2947;52.276;9.946;2023-06-19T03:33:15;8.68;;;5.30;;
5841;SDS011;2947;52.276;9.946;2023-06-19T03:35:41;8.85;;;4.50;;
5841;SDS011;2947;52.276;9.946;2023-06-19T03:38:08;6.68;;;4.88;;
5841;SDS011;2947;52.276;9.946;2023-06-19T03:40:33;6.15;;;3.97;;
5841;SDS011;2947;52.276;9.946;2023-06-19T03:42:59;7.88;;;4.85;;
5841;SDS011;2947;52.276;9.946;2023-06-19T03:45:25;11.15;;;5.70;;
5841;SDS011;2947;52.276;9.946;2023-06-19T03:47:50;8.25;;;5.10;;
5841;SDS011;2947;52.276;9.946;2023-06-19T03:50:16;7.43;;;5.30;;
5841;SDS011;2947;52.276;9.946;2023-06-19T03:52:42;8.65;;;4.93;;
5841;SDS011;2947;52.276;9.946;2023-06-19T03:55:07;7.40;;;5.78;;
5841;SDS011;2947;52.276;9.946;2023-06-19T03:57:33;7.78;;;4.82;;
5841;SDS011;2947;52.276;9.946;2023-06-19T03:59:59;8.55;;;5.15;;
5841;SDS011;2947;52.276;9.946;2023-06-19T04:02:25;10.15;;;4.75;;
5841;SDS011;2947;52.276;9.946;2023-06-19T04:04:51;7.28;;;4.90;;
5841;SDS011;2947;52.276;9.946;2023-06-19T04:07:16;7.40;;;5.13;;
5841;SDS011;2947;52.276;9.946;2023-06-19T04:09:42;8.57;;;4.47;;
5841;SDS011;2947;52.276;9.946;2023-06-19T04:12:08;7.00;;;5.18;;
5841;SDS011;2947;52.276;9.946;2023-06-19T04:14:34;7.65;;;4.93;;
5841;SDS011;2947;52.276;9.946;2023-06-19T04:17:00;8.18;;;5.22;;
5841;SDS011;2947;52.276;9.946;2023-06-19T04:19:25;6.30;;;4.57;;
5841;SDS011;2947;52.276;9.946;2023-06-19T04:21:51;7.50;;;4.82;;
5841;SDS011;2947;52.276;9.946;2023-06-19T04:24:17;6.45;;;4.90;;
5841;SDS011;2947;52.276;9.946;2023-06-19T04:26:42;9.48;;;5.25;;
5841;SDS011;2947;52.276;9.946;2023-06-19T04:29:08;8.13;;;4.55;;
5841;SDS011;2947;52.276;9.946;2023-06-19T04:31:41;11.05;;;5.47;;
5841;SDS011;2947;52.276;9.946;2023-06-19T04:34:12;8.20;;;4.95;;
5841;SDS011;2947;52.276;9.946;2023-06-19T04:36:40;8.07;;;4.78;;
5841;SDS011;2947;52.276;9.946;2023-06-19T04:39:06;7.93;;;5.45;;
5841;SDS011;2947;52.276;9.946;2023-06-19T04:41:32;9.73;;;5.63;;
5841;SDS011;2947;52.276;9.946;2023-06-19T04:43:57;7.07;;;5.10;;
5841;SDS011;2947;52.276;9.946;2023-06-19T04:46:23;8.00;;;4.75;;
5841;SDS011;2947;52.276;9.946;2023-06-19T04:48:49;8.02;;;5.82;;
5841;SDS011;2947;52.276;9.946;2023-06-19T04:51:17;7.95;;;4.68;;
5841;SDS011;2947;52.276;9.946;2023-06-19T04:53:49;10.30;;;5.35;;
5841;SDS011;2947;52.276;9.946;2023-06-19T04:56:15;8.75;;;5.53;;
5841;SDS011;2947;52.276;9.946;2023-06-19T04:58:41;8.48;;;5.60;;
5841;SDS011;2947;52.276;9.946;2023-06-19T05:01:14;10.27;;;4.90;;
5841;SDS011;2947;52.276;9.946;2023-06-19T05:03:42;7.40;;;5.47;;
5841;SDS011;2947;52.276;9.946;2023-06-19T05:06:13;7.45;;;4.88;;
5841;SDS011;2947;52.276;9.946;2023-06-19T05:08:39;7.82;;;5.13;;
5841;SDS011;2947;52.276;9.946;2023-06-19T05:11:05;12.98;;;5.00;;
5841;SDS011;2947;52.276;9.946;2023-06-19T05:13:31;9.48;;;5.40;;
5841;SDS011;2947;52.276;9.946;2023-06-19T05:15:56;7.80;;;5.15;;
5841;SDS011;2947;52.276;9.946;2023-06-19T05:18:22;8.40;;;5.25;;
5841;SDS011;2947;52.276;9.946;2023-06-19T05:20:48;8.07;;;5.78;;
5841;SDS011;2947;52.276;9.946;2023-06-19T05:23:13;10.95;;;5.65;;
5841;SDS011;2947;52.276;9.946;2023-06-19T05:25:39;9.50;;;6.22;;
5841;SDS011;2947;52.276;9.946;2023-06-19T05:28:05;12.45;;;4.72;;
5841;SDS011;2947;52.276;9.946;2023-06-19T05:30:31;8.45;;;5.13;;
5841;SDS011;2947;52.276;9.946;2023-06-19T05:32:56;8.68;;;5.65;;
5841;SDS011;2947;52.276;9.946;2023-06-19T05:35:22;7.55;;;4.85;;
5841;SDS011;2947;52.276;9.946;2023-06-19T05:37:48;7.57;;;4.80;;
5841;SDS011;2947;52.276;9.946;2023-06-19T05:40:14;7.63;;;5.63;;
5841;SDS011;2947;52.276;9.946;2023-06-19T05:42:40;9.50;;;5.45;;
5841;SDS011;2947;52.276;9.946;2023-06-19T05:45:06;8.55;;;5.45;;
5841;SDS011;2947;52.276;9.946;2023-06-19T05:47:32;7.75;;;5.18;;
5841;SDS011;2947;52.276;9.946;2023-06-19T05:49:58;7.65;;;5.38;;
5841;SDS011;2947;52.276;9.946;2023-06-19T05:52:24;7.13;;;5.13;;
5841;SDS011;2947;52.276;9.946;2023-06-19T05:54:50;7.82;;;5.55;;
5841;SDS011;2947;52.276;9.946;2023-06-19T05:57:18;8.75;;;5.45;;
5841;SDS011;2947;52.276;9.946;2023-06-19T05:59:48;7.82;;;5.97;;
5841;SDS011;2947;52.276;9.946;2023-06-19T06:02:18;9.00;;;5.22;;
5841;SDS011;2947;52.276;9.946;2023-06-19T06:04:45;7.40;;;5.07;;
5841;SDS011;2947;52.276;9.946;2023-06-19T06:07:11;8.50;;;4.43;;
5841;SDS011;2947;52.276;9.946;2023-06-19T06:09:37;7.00;;;4.93;;
5841;SDS011;2947;52.276;9.946;2023-06-19T06:12:03;10.50;;;6.05;;
5841;SDS011;2947;52.276;9.946;2023-06-19T06:14:29;11.68;;;5.80;;
5841;SDS011;2947;52.276;9.946;2023-06-19T06:16:55;8.40;;;5.47;;
5841;SDS011;2947;52.276;9.946;2023-06-19T06:19:21;10.70;;;5.22;;
5841;SDS011;2947;52.276;9.946;2023-06-19T06:21:48;9.32;;;5.78;;
5841;SDS011;2947;52.276;9.946;2023-06-19T06:24:14;8.73;;;5.38;;
5841;SDS011;2947;52.276;9.946;2023-06-19T06:26:40;12.90;;;6.10;;
5841;SDS011;2947;52.276;9.946;2023-06-19T06:29:06;8.05;;;5.80;;
5841;SDS011;2947;52.276;9.946;2023-06-19T06:31:33;10.20;;;6.05;;
5841;SDS011;2947;52.276;9.946;2023-06-19T06:33:59;9.70;;;6.07;;
5841;SDS011;2947;52.276;9.946;2023-06-19T06:36:25;9.38;;;6.15;;
5841;SDS011;2947;52.276;9.946;2023-06-19T06:38:52;8.63;;;5.50;;
5841;SDS011;2947;52.276;9.946;2023-06-19T06:41:17;10.70;;;6.45;;
5841;SDS011;2947;52.276;9.946;2023-06-19T06:43:43;9.45;;;5.72;;
5841;SDS011;2947;52.276;9.946;2023-06-19T06:46:09;10.85;;;6.60;;
5841;SDS011;2947;52.276;9.946;2023-06-19T06:48:35;10.73;;;6.65;;
5841;SDS011;2947;52.276;9.946;2023-06-19T06:51:02;8.40;;;6.22;;
5841;SDS011;2947;52.276;9.946;2023-06-19T06:53:28;8.65;;;6.05;;
5841;SDS011;2947;52.276;9.946;2023-06-19T06:55:57;9.43;;;6.03;;
5841;SDS011;2947;52.276;9.946;2023-06-19T06:58:26;8.52;;;5.80;;
5841;SDS011;2947;52.276;9.946;2023-06-19T07:00:52;9.13;;;5.70;;
5841;SDS011;2947;52.276;9.946;2023-06-19T07:03:18;9.35;;;5.30;;
5841;SDS011;2947;52.276;9.946;2023-06-19T07:05:44;9.48;;;6.05;;
5841;SDS011;2947;52.276;9.946;2023-06-19T07:08:10;7.75;;;5.45;;
5841;SDS011;2947;52.276;9.946;2023-06-19T07:10:36;8.70;;;6.70;;
5841;SDS011;2947;52.276;9.946;2023-06-19T07:13:01;9.02;;;6.47;;
5841;SDS011;2947;52.276;9.946;2023-06-19T07:15:28;10.23;;;6.38;;
5841;SDS011;2947;52.276;9.946;2023-06-19T07:17:54;8.02;;;5.93;;
5841;SDS011;2947;52.276;9.946;2023-06-19T07:20:20;8.50;;;6.05;;
5841;SDS011;2947;52.276;9.946;2023-06-19T07:22:46;10.02;;;6.93;;
5841;SDS011;2947;52.276;9.946;2023-06-19T07:25:12;8.52;;;6.03;;
5841;SDS011;2947;52.276;9.946;2023-06-19T07:27:39;8.32;;;5.88;;
5841;SDS011;2947;52.276;9.946;2023-06-19T07:30:06;9.52;;;6.30;;
5841;SDS011;2947;52.276;9.946;2023-06-19T07:32:32;8.38;;;6.32;;
5841;SDS011;2947;52.276;9.946;2023-06-19T07:34:58;9.40;;;6.82;;
5841;SDS011;2947;52.276;9.946;2023-06-19T07:37:24;10.18;;;6.60;;
5841;SDS011;2947;52.276;9.946;2023-06-19T07:39:50;8.43;;;6.35;;
5841;SDS011;2947;52.276;9.946;2023-06-19T07:42:17;9.43;;;7.15;;
5841;SDS011;2947;52.276;9.946;2023-06-19T07:44:44;20.33;;;7.20;;
5841;SDS011;2947;52.276;9.946;2023-06-19T07:47:10;8.82;;;6.68;;
5841;SDS011;2947;52.276;9.946;2023-06-19T07:49:36;8.63;;;6.40;;
5841;SDS011;2947;52.276;9.946;2023-06-19T07:52:04;12.82;;;6.40;;
5841;SDS011;2947;52.276;9.946;2023-06-19T07:54:33;11.45;;;6.80;;
5841;SDS011;2947;52.276;9.946;2023-06-19T07:56:59;10.65;;;6.43;;
5841;SDS011;2947;52.276;9.946;2023-06-19T07:59:25;9.02;;;6.38;;
5841;SDS011;2947;52.276;9.946;2023-06-19T08:01:51;9.02;;;6.70;;
5841;SDS011;2947;52.276;9.946;2023-06-19T08:04:17;7.75;;;6.03;;
5841;SDS011;2947;52.276;9.946;2023-06-19T08:06:42;9.23;;;6.78;;
5841;SDS011;2947;52.276;9.946;2023-06-19T08:09:08;10.88;;;6.38;;
5841;SDS011;2947;52.276;9.946;2023-06-19T08:11:34;12.13;;;6.25;;
5841;SDS011;2947;52.276;9.946;2023-06-19T08:14:00;9.95;;;6.85;;
5841;SDS011;2947;52.276;9.946;2023-06-19T08:16:26;11.07;;;6.93;;
5841;SDS011;2947;52.276;9.946;2023-06-19T08:18:52;8.50;;;5.78;;
5841;SDS011;2947;52.276;9.946;2023-06-19T08:21:17;9.02;;;6.50;;
5841;SDS011;2947;52.276;9.946;2023-06-19T08:23:45;8.35;;;6.75;;
5841;SDS011;2947;52.276;9.946;2023-06-19T08:26:11;9.40;;;6.68;;
5841;SDS011;2947;52.276;9.946;2023-06-19T08:28:38;8.73;;;6.70;;
5841;SDS011;2947;52.276;9.946;2023-06-19T08:31:05;11.57;;;6.95;;
5841;SDS011;2947;52.276;9.946;2023-06-19T08:33:31;9.35;;;6.55;;
5841;SDS011;2947;52.276;9.946;2023-06-19T08:36:01;12.20;;;6.32;;
5841;SDS011;2947;52.276;9.946;2023-06-19T08:38:27;11.75;;;6.50;;
5841;SDS011;2947;52.276;9.946;2023-06-19T08:40:53;9.15;;;6.03;;
5841;SDS011;2947;52.276;9.946;2023-06-19T08:43:20;12.10;;;6.78;;
5841;SDS011;2947;52.276;9.946;2023-06-19T08:46:10;9.43;;;6.20;;
5841;SDS011;2947;52.276;9.946;2023-06-19T08:48:39;10.18;;;6.80;;
5841;SDS011;2947;52.276;9.946;2023-06-19T08:51:04;10.10;;;6.13;;
5841;SDS011;2947;52.276;9.946;2023-06-19T08:53:34;8.95;;;6.53;;
5841;SDS011;2947;52.276;9.946;2023-06-19T08:56:02;7.78;;;6.18;;
5841;SDS011;2947;52.276;9.946;2023-06-19T08:58:28;8.43;;;5.75;;
5841;SDS011;2947;52.276;9.946;2023-06-19T09:00:54;10.15;;;6.13;;
5841;SDS011;2947;52.276;9.946;2023-06-19T09:03:20;9.68;;;6.20;;
5841;SDS011;2947;52.276;9.946;2023-06-19T09:05:46;9.48;;;6.35;;
5841;SDS011;2947;52.276;9.946;2023-06-19T09:08:19;8.48;;;6.95;;
5841;SDS011;2947;52.276;9.946;2023-06-19T09:10:56;9.13;;;6.80;;
5841;SDS011;2947;52.276;9.946;2023-06-19T09:13:28;12.07;;;6.78;;
5841;SDS011;2947;52.276;9.946;2023-06-19T09:16:04;9.80;;;6.20;;
5841;SDS011;2947;52.276;9.946;2023-06-19T09:18:42;8.93;;;6.50;;
5841;SDS011;2947;52.276;9.946;2023-06-19T09:21:19;9.38;;;5.50;;
5841;SDS011;2947;52.276;9.946;2023-06-19T09:23:50;8.50;;;5.97;;
5841;SDS011;2947;52.276;9.946;2023-06-19T09:26:16;7.93;;;6.32;;
5841;SDS011;2947;52.276;9.946;2023-06-19T09:28:44;7.53;;;6.10;;
5841;SDS011;2947;52.276;9.946;2023-06-19T09:31:10;9.13;;;6.47;;
5841;SDS011;2947;52.276;9.946;2023-06-19T09:33:38;9.27;;;5.72;;
5841;SDS011;2947;52.276;9.946;2023-06-19T09:36:05;8.48;;;6.00;;
5841;SDS011;2947;52.276;9.946;2023-06-19T09:38:37;10.10;;;6.88;;
5841;SDS011;2947;52.276;9.946;2023-06-19T09:41:05;9.30;;;6.57;;
5841;SDS011;2947;52.276;9.946;2023-06-19T09:43:44;7.90;;;6.07;;
5841;SDS011;2947;52.276;9.946;2023-06-19T09:46:12;9.18;;;6.15;;
5841;SDS011;2947;52.276;9.946;2023-06-19T09:48:44;8.73;;;6.38;;
5841;SDS011;2947;52.276;9.946;2023-06-19T09:53:45;9.00;;;6.00;;
5841;SDS011;2947;52.276;9.946;2023-06-19T09:56:13;7.90;;;5.70;;
5841;SDS011;2947;52.276;9.946;2023-06-19T09:58:40;8.50;;;6.05;;
5841;SDS011;2947;52.276;9.946;2023-06-19T10:01:10;7.47;;;5.72;;
5841;SDS011;2947;52.276;9.946;2023-06-19T10:03:37;10.35;;;5.75;;
5841;SDS011;2947;52.276;9.946;2023-06-19T10:06:05;8.20;;;5.25;;
5841;SDS011;2947;52.276;9.946;2023-06-19T10:08:41;10.13;;;6.13;;
5841;SDS011;2947;52.276;9.946;2023-06-19T10:11:09;8.88;;;5.45;;
5841;SDS011;2947;52.276;9.946;2023-06-19T10:13:36;8.07;;;5.80;;
5841;SDS011;2947;52.276;9.946;2023-06-19T10:16:05;7.15;;;5.72;;
5841;SDS011;2947;52.276;9.946;2023-06-19T10:18:32;8.90;;;5.93;;
5841;SDS011;2947;52.276;9.946;2023-06-19T10:21:17;7.63;;;5.82;;
5841;SDS011;2947;52.276;9.946;2023-06-19T10:23:52;7.47;;;5.30;;
5841;SDS011;2947;52.276;9.946;2023-06-19T10:26:30;8.07;;;4.90;;
5841;SDS011;2947;52.276;9.946;2023-06-19T10:29:00;8.02;;;5.45;;
5841;SDS011;2947;52.276;9.946;2023-06-19T10:31:26;7.30;;;5.43;;
5841;SDS011;2947;52.276;9.946;2023-06-19T10:33:53;6.70;;;5.00;;
5841;SDS011;2947;52.276;9.946;2023-06-19T10:36:20;7.50;;;5.07;;
5841;SDS011;2947;52.276;9.946;2023-06-19T10:38:51;10.15;;;6.05;;
5841;SDS011;2947;52.276;9.946;2023-06-19T10:41:17;7.40;;;5.78;;
5841;SDS011;2947;52.276;9.946;2023-06-19T10:44:04;7.80;;;6.28;;
5841;SDS011;2947;52.276;9.946;2023-06-19T10:46:37;8.27;;;5.88;;
5841;SDS011;2947;52.276;9.946;2023-06-19T10:49:04;6.85;;;4.93;;
5841;SDS011;2947;52.276;9.946;2023-06-19T10:51:33;6.65;;;5.25;;
5841;SDS011;2947;52.276;9.946;2023-06-19T10:54:01;11.65;;;5.88;;
5841;SDS011;2947;52.276;9.946;2023-06-19T10:56:27;7.05;;;5.07;;
5841;SDS011;2947;52.276;9.946;2023-06-19T10:58:59;12.55;;;6.05;;
5841;SDS011;2947;52.276;9.946;2023-06-19T11:01:34;7.78;;;5.30;;
5841;SDS011;2947;52.276;9.946;2023-06-19T11:04:05;12.02;;;5.47;;
5841;SDS011;2947;52.276;9.946;2023-06-19T11:06:33;8.30;;;6.22;;
5841;SDS011;2947;52.276;9.946;2023-06-19T11:08:59;11.40;;;5.90;;
5841;SDS011;2947;52.276;9.946;2023-06-19T11:11:40;7.07;;;5.20;;
5841;SDS011;2947;52.276;9.946;2023-06-19T11:14:08;6.53;;;5.57;;
5841;SDS011;2947;52.276;9.946;2023-06-19T11:16:37;7.75;;;5.18;;
5841;SDS011;2947;52.276;9.946;2023-06-19T11:19:09;6.10;;;5.00;;
5841;SDS011;2947;52.276;9.946;2023-06-19T11:21:40;8.00;;;5.65;;
5841;SDS011;2947;52.276;9.946;2023-06-19T11:24:11;8.05;;;5.25;;
5841;SDS011;2947;52.276;9.946;2023-06-19T11:26:39;6.13;;;4.70;;
5841;SDS011;2947;52.276;9.946;2023-06-19T11:29:35;6.60;;;5.00;;
5841;SDS011;2947;52.276;9.946;2023-06-19T11:32:08;8.48;;;4.35;;
5841;SDS011;2947;52.276;9.946;2023-06-19T11:34:39;7.78;;;3.90;;
5841;SDS011;2947;52.276;9.946;2023-06-19T11:37:15;9.98;;;4.45;;
5841;SDS011;2947;52.276;9.946;2023-06-19T11:39:43;6.88;;;4.40;;
5841;SDS011;2947;52.276;9.946;2023-06-19T11:42:10;6.45;;;3.90;;
5841;SDS011;2947;52.276;9.946;2023-06-19T11:44:35;6.03;;;3.40;;
5841;SDS011;2947;52.276;9.946;2023-06-19T11:47:18;4.95;;;3.55;;
5841;SDS011;2947;52.276;9.946;2023-06-19T11:49:43;5.35;;;4.07;;
5841;SDS011;2947;52.276;9.946;2023-06-19T11:52:13;4.43;;;3.03;;
5841;SDS011;2947;52.276;9.946;2023-06-19T11:54:39;6.82;;;3.65;;
5841;SDS011;2947;52.276;9.946;2023-06-19T11:57:05;6.43;;;3.88;;
5841;SDS011;2947;52.276;9.946;2023-06-19T11:59:31;7.57;;;4.30;;
5841;SDS011;2947;52.276;9.946;2023-06-19T12:01:56;5.53;;;3.75;;
5841;SDS011;2947;52.276;9.946;2023-06-19T12:04:24;7.68;;;4.30;;
5841;SDS011;2947;52.276;9.946;2023-06-19T12:06:51;9.32;;;3.95;;
5841;SDS011;2947;52.276;9.946;2023-06-19T12:09:18;6.30;;;4.10;;
5841;SDS011;2947;52.276;9.946;2023-06-19T12:11:43;8.50;;;4.35;;
5841;SDS011;2947;52.276;9.946;2023-06-19T12:14:09;7.60;;;4.25;;
5841;SDS011;2947;52.276;9.946;2023-06-19T12:16:35;4.85;;;3.30;;
5841;SDS011;2947;52.276;9.946;2023-06-19T12:19:00;5.10;;;3.08;;
5841;SDS011;2947;52.276;9.946;2023-06-19T12:21:26;5.25;;;2.75;;
5841;SDS011;2947;52.276;9.946;2023-06-19T12:23:52;4.00;;;2.55;;
5841;SDS011;2947;52.276;9.946;2023-06-19T12:26:18;4.63;;;2.78;;
5841;SDS011;2947;52.276;9.946;2023-06-19T12:28:45;4.38;;;2.67;;
5841;SDS011;2947;52.276;9.946;2023-06-19T12:31:10;3.58;;;2.20;;
5841;SDS011;2947;52.276;9.946;2023-06-19T12:33:36;5.43;;;2.22;;
5841;SDS011;2947;52.276;9.946;2023-06-19T12:36:04;4.65;;;2.50;;
5841;SDS011;2947;52.276;9.946;2023-06-19T12:38:31;3.80;;;2.50;;
5841;SDS011;2947;52.276;9.946;2023-06-19T12:40:56;7.55;;;2.97;;
5841;SDS011;2947;52.276;9.946;2023-06-19T12:43:22;4.88;;;2.33;;
5841;SDS011;2947;52.276;9.946;2023-06-19T12:45:48;5.10;;;2.45;;
5841;SDS011;2947;52.276;9.946;2023-06-19T12:48:13;5.28;;;2.95;;
5841;SDS011;2947;52.276;9.946;2023-06-19T12:50:39;4.95;;;2.78;;
5841;SDS011;2947;52.276;9.946;2023-06-19T12:53:05;3.92;;;2.22;;
5841;SDS011;2947;52.276;9.946;2023-06-19T12:55:30;4.25;;;2.30;;
5841;SDS011;2947;52.276;9.946;2023-06-19T12:57:56;5.13;;;2.60;;
5841;SDS011;2947;52.276;9.946;2023-06-19T13:00:23;4.05;;;2.65;;
5841;SDS011;2947;52.276;9.946;2023-06-19T13:02:48;5.35;;;2.95;;
5841;SDS011;2947;52.276;9.946;2023-06-19T13:05:14;4.03;;;2.30;;
5841;SDS011;2947;52.276;9.946;2023-06-19T13:07:40;6.03;;;3.03;;
5841;SDS011;2947;52.276;9.946;2023-06-19T13:10:06;7.07;;;3.00;;
5841;SDS011;2947;52.276;9.946;2023-06-19T13:12:32;7.68;;;2.80;;
5841;SDS011;2947;52.276;9.946;2023-06-19T13:14:57;4.13;;;2.45;;
5841;SDS011;2947;52.276;9.946;2023-06-19T13:17:23;4.13;;;2.42;;
5841;SDS011;2947;52.276;9.946;2023-06-19T13:19:49;5.78;;;2.75;;
5841;SDS011;2947;52.276;9.946;2023-06-19T13:22:15;4.15;;;2.60;;
5841;SDS011;2947;52.276;9.946;2023-06-19T13:24:40;9.45;;;3.47;;
5841;SDS011;2947;52.276;9.946;2023-06-19T13:27:06;4.97;;;3.03;;
5841;SDS011;2947;52.276;9.946;2023-06-19T13:29:32;4.03;;;3.10;;
5841;SDS011;2947;52.276;9.946;2023-06-19T13:31:58;5.85;;;3.15;;
5841;SDS011;2947;52.276;9.946;2023-06-19T13:34:24;3.83;;;2.95;;
5841;SDS011;2947;52.276;9.946;2023-06-19T13:36:51;7.15;;;3.75;;
5841;SDS011;2947;52.276;9.946;2023-06-19T13:39:16;6.60;;;3.63;;
5841;SDS011;2947;52.276;9.946;2023-06-19T13:41:44;6.65;;;4.50;;
5841;SDS011;2947;52.276;9.946;2023-06-19T13:44:11;5.38;;;3.25;;
5841;SDS011;2947;52.276;9.946;2023-06-19T13:46:37;4.40;;;3.10;;
5841;SDS011;2947;52.276;9.946;2023-06-19T13:49:03;4.95;;;3.95;;
5841;SDS011;2947;52.276;9.946;2023-06-19T13:51:29;5.22;;;3.78;;
5841;SDS011;2947;52.276;9.946;2023-06-19T13:53:55;5.85;;;3.28;;
5841;SDS011;2947;52.276;9.946;2023-06-19T13:56:21;6.47;;;4.20;;
5841;SDS011;2947;52.276;9.946;2023-06-19T13:58:48;7.15;;;4.55;;
5841;SDS011;2947;52.276;9.946;2023-06-19T14:01:14;6.43;;;4.35;;
5841;SDS011;2947;52.276;9.946;2023-06-19T14:03:40;5.80;;;4.10;;
5841;SDS011;2947;52.276;9.946;2023-06-19T14:06:06;5.57;;;3.88;;
5841;SDS011;2947;52.276;9.946;2023-06-19T14:08:32;5.55;;;3.63;;
5841;SDS011;2947;52.276;9.946;2023-06-19T14:10:58;8.57;;;4.00;;
5841;SDS011;2947;52.276;9.946;2023-06-19T14:13:24;6.60;;;4.43;;
5841;SDS011;2947;52.276;9.946;2023-06-19T14:15:50;5.65;;;4.43;;
5841;SDS011;2947;52.276;9.946;2023-06-19T14:18:16;7.47;;;3.78;;
5841;SDS011;2947;52.276;9.946;2023-06-19T14:20:41;5.35;;;3.85;;
5841;SDS011;2947;52.276;9.946;2023-06-19T14:23:07;7.47;;;3.75;;
5841;SDS011;2947;52.276;9.946;2023-06-19T14:25:33;6.18;;;3.88;;
5841;SDS011;2947;52.276;9.946;2023-06-19T14:27:59;6.22;;;4.20;;
5841;SDS011;2947;52.276;9.946;2023-06-19T14:30:25;6.20;;;3.75;;
5841;SDS011;2947;52.276;9.946;2023-06-19T14:32:51;6.40;;;4.13;;
5841;SDS011;2947;52.276;9.946;2023-06-19T14:35:16;4.68;;;3.72;;
5841;SDS011;2947;52.276;9.946;2023-06-19T14:37:42;4.38;;;3.33;;
5841;SDS011;2947;52.276;9.946;2023-06-19T14:40:08;6.75;;;3.67;;
5841;SDS011;2947;52.276;9.946;2023-06-19T14:42:35;5.03;;;3.78;;
5841;SDS011;2947;52.276;9.946;2023-06-19T14:45:01;4.90;;;3.50;;
5841;SDS011;2947;52.276;9.946;2023-06-19T14:47:26;6.07;;;3.75;;
5841;SDS011;2947;52.276;9.946;2023-06-19T14:49:52;12.07;;;4.60;;
5841;SDS011;2947;52.276;9.946;2023-06-19T14:52:21;6.40;;;3.90;;
5841;SDS011;2947;52.276;9.946;2023-06-19T14:54:46;5.82;;;3.80;;
5841;SDS011;2947;52.276;9.946;2023-06-19T14:57:12;5.80;;;3.10;;
5841;SDS011;2947;52.276;9.946;2023-06-19T14:59:38;7.80;;;4.32;;
5841;SDS011;2947;52.276;9.946;2023-06-19T15:02:04;5.03;;;4.38;;
5841;SDS011;2947;52.276;9.946;2023-06-19T15:04:31;5.50;;;3.58;;
5841;SDS011;2947;52.276;9.946;2023-06-19T15:06:58;9.05;;;4.55;;
5841;SDS011;2947;52.276;9.946;2023-06-19T15:09:24;7.05;;;4.30;;
5841;SDS011;2947;52.276;9.946;2023-06-19T15:11:51;4.65;;;3.70;;
5841;SDS011;2947;52.276;9.946;2023-06-19T15:14:17;6.25;;;4.22;;
5841;SDS011;2947;52.276;9.946;2023-06-19T15:16:44;6.13;;;3.88;;
5841;SDS011;2947;52.276;9.946;2023-06-19T15:19:10;5.65;;;4.20;;